KFRI/FRI METAR and TAF weather

Enter ICAO airport designator
Station Type Date Time Source
KFRI METAR 2020/01/21 14:56 UTC NOAA

KFRI 211456Z 17005KT 10SM CLR M10/M14 A3050 RMK AO2A SLP347 T11041143 57008 $


Station Type Date Time Source
KFRI Decoded METAR 2020/01/21 14:56 UTC NOAA

Fort Riley, Marshall AAF Ft Riley, KS, United States (KFRI) 39-03-20N 096-45-51W
Jan 21, 2020 - 09:56 AM EST / 2020.01.21 1456 UTC
Wind: from the S (170 degrees) at 6 MPH (5 KT):0
Visibility: 10 mile(s):0
Sky conditions: clear
Temperature: 13.3 F (-10.4 C)
Windchill: 3 F (-16 C):1
Dew Point: 6.3 F (-14.3 C)
Relative Humidity: 73%
Pressure (altimeter): 30.5 in. Hg (1032 hPa)
Pressure tendency: 0.02 inches (0.8 hPa) lower than three hours ago
ob: KFRI 211456Z 17005KT 10SM CLR M10/M14 A3050 RMK AO2A SLP347 T11041143 57008
cycle: 15

Station Type Date Time Source
KFRI TAF 2020/01/21 13:06 UTC NOAA

TAF KFRI 211300Z 2113/2219 10008KT 9999 SKC QNH3049INS
BECMG 2115/2116 16010G15KT 9999 SCT200 QNH3020INS
BECMG 2200/2201 18010G15KT 9999 SCT100 BKN150 QNH3015INS
BECMG 2204/2205 18010G20KT 6000 -SN BKN010 BKN035 OVC050 650109 540109 QNH2991INS
TEMPO 2205/2207 4800 -FZRA OVC005 690001
BECMG 2215/2216 18010G20KT 4800 -RASN OVC005 650109 540109 QNH2988INS
BECMG 2216/2217 19010G15KT 6000 -RA BKN006 OVC010 650109 540109 QNH2982INS TX02/2213Z TNM15/2115Z

Example: see airport list